KMTN/MTN METAR and TAF weather

Enter ICAO airport designator
Station Type Date Time Source
KMTN METAR 2019/08/21 02:42 UTC NOAA

KMTN 210242Z AUTO 16004KT 10SM CLR 26/21 A3002 RMK AO2


Station Type Date Time Source
KMTN Decoded METAR 2019/08/21 02:42 UTC NOAA

Station name not available
Aug 20, 2019 - 10:42 PM EDT / 2019.08.21 0242 UTC
Wind: from the SSE (160 degrees) at 5 MPH (4 KT):0
Visibility: 10 mile(s):0
Sky conditions: clear
Temperature: 78 F (26 C)
Dew Point: 69 F (21 C)
Relative Humidity: 73%
Pressure (altimeter): 30.02 in. Hg (1016 hPa)
ob: KMTN 210242Z AUTO 16004KT 10SM CLR 26/21 A3002 RMK AO2
cycle: 2

Station Type Date Time Source
KMTN TAF 2019/08/20 18:24 UTC NOAA

TAF KMTN 201723Z 2018/2118 08005KT P6SM BKN250
FM202000 13005KT P6SM VCTS BKN050CB
FM210100 15004KT P6SM BKN080
FM210500 VRB03KT P6SM BKN050
FM211300 20006KT P6SM SCT120

Example: see airport list